Airport ICAO


22:11 UTC

5°C

Clear skies


An affordable passengers' Moving Map for your aircraft. Made for the iPad and the iPhone
More information here

LFPN Le Noble


Toussous FRANCE   VFR CAVOK


METAR LFPN 132200Z AUTO 18003KT CAVOK 05/03 Q1029 0h11min

TAF LFPN 131700Z 1318/1403 20005KT CAVOK BECMG 1321/1323 3000 BR TEMPO 1323/1403 0800 FG BKN002 PROB30 TEMPO 1401/1403 0200 FG VV/// 5h11min





NOTAMS

OPEN